Time;durP1;ratioP1;P1;durP2;ratioP2;P2;SDS_P1;SDS_P2;PMS_P1;PMS_P2;Temp;Humidity;BMP_temperature;BMP_pressure;BME280_temperature;BME280_humidity;BME280_pressure;Samples;Min_cycle;Max_cycle;Signal;HPM_P1;HPM_P2
2023/03/06 00:01:17;;;;;;;3.27;2.33;;;2.30;15.30;;;;;;5032697;28;20430;-67
2023/03/06 00:03:43;;;;;;;2.70;2.50;;;2.10;12.80;;;;;;5033133;28;20175;-67
2023/03/06 00:06:09;;;;;;;10.20;4.07;;;2.00;11.40;;;;;;5032174;28;20515;-72
2023/03/06 00:08:34;;;;;;;9.03;2.73;;;2.00;20.40;;;;;;5033212;28;20216;-67
2023/03/06 00:11:00;;;;;;;3.13;2.60;;;2.00;22.50;;;;;;5031363;28;20651;-73
2023/03/06 00:13:28;;;;;;;3.40;3.20;;;1.90;20.50;;;;;;5032677;28;20179;-68
2023/03/06 00:15:59;;;;;;;3.03;2.70;;;1.80;17.80;;;;;;5041757;28;20244;-73
2023/03/06 00:18:25;;;;;;;3.63;2.83;;;1.80;22.80;;;;;;5052951;28;20407;-67
2023/03/06 00:20:51;;;;;;;2.50;2.30;;;1.80;22.50;;;;;;5052881;28;20397;-73
2023/03/06 00:23:17;;;;;;;2.73;2.53;;;1.80;24.40;;;;;;5051950;28;20441;-72
2023/03/06 00:25:44;;;;;;;3.10;2.83;;;1.80;25.90;;;;;;5051755;28;20191;-72
2023/03/06 00:28:11;;;;;;;4.53;3.00;;;1.80;29.30;;;;;;5052933;28;20238;-72
2023/03/06 00:30:36;;;;;;;6.40;2.83;;;1.80;29.80;;;;;;5052990;28;20445;-67
2023/03/06 00:33:02;;;;;;;4.60;2.60;;;1.70;28.70;;;;;;5051320;28;20483;-67
2023/03/06 00:35:28;;;;;;;4.60;2.20;;;1.60;23.30;;;;;;5051130;28;20211;-67
2023/03/06 00:37:53;;;;;;;9.90;2.77;;;1.60;18.20;;;;;;5054603;28;20405;-67
2023/03/06 00:40:20;;;;;;;2.53;2.30;;;1.50;13.70;;;;;;5044269;28;20191;-67
2023/03/06 00:42:47;;;;;;;2.67;2.47;;;1.40;12.80;;;;;;5050664;28;20261;-72
2023/03/06 00:45:13;;;;;;;2.90;2.70;;;1.40;9.50;;;;;;5055992;28;20421;-72
2023/03/06 00:47:40;;;;;;;6.03;2.93;;;1.40;11.10;;;;;;5056686;28;20801;-72
2023/03/06 00:50:07;;;;;;;2.90;2.40;;;1.30;15.40;;;;;;5056286;28;20452;-71
2023/03/06 00:52:32;;;;;;;2.50;2.40;;;1.30;16.30;;;;;;5041734;28;20870;-67
2023/03/06 00:54:58;;;;;;;3.53;3.23;;;1.20;18.90;;;;;;5035597;28;20506;-67
2023/03/06 00:57:24;;;;;;;3.13;2.60;;;1.20;28.60;;;;;;5035669;28;20410;-68
2023/03/06 00:59:49;;;;;;;4.07;2.53;;;1.20;29.50;;;;;;5035350;28;20186;-66
2023/03/06 01:02:15;;;;;;;3.60;2.47;;;1.20;39.00;;;;;;5045554;28;20658;-72
2023/03/06 01:04:41;;;;;;;4.50;2.30;;;1.10;33.70;;;;;;5054477;28;20265;-68
2023/03/06 01:07:07;;;;;;;2.70;2.50;;;1.10;34.40;;;;;;5054815;28;20182;-72
2023/03/06 01:09:32;;;;;;;2.50;2.23;;;1.10;31.40;;;;;;5055833;28;20660;-72
2023/03/06 01:11:58;;;;;;;2.30;2.10;;;1.10;36.60;;;;;;5048258;28;20176;-72
2023/03/06 01:14:24;;;;;;;7.03;2.50;;;1.10;37.80;;;;;;5034115;28;20748;-72
2023/03/06 01:16:50;;;;;;;3.20;2.93;;;1.00;30.80;;;;;;5036172;28;20194;-67
2023/03/06 01:19:16;;;;;;;3.17;2.70;;;1.00;26.90;;;;;;5036373;28;20410;-67
2023/03/06 01:21:42;;;;;;;2.73;2.57;;;1.00;30.60;;;;;;5052855;28;20178;-67
2023/03/06 01:24:07;;;;;;;3.63;1.93;;;1.00;29.90;;;;;;5054669;28;20479;-71
2023/03/06 01:26:33;;;;;;;3.00;1.70;;;0.90;24.90;;;;;;5054356;28;20265;-68
2023/03/06 01:28:59;;;;;;;2.70;2.30;;;0.90;25.30;;;;;;5054724;28;20210;-67
2023/03/06 01:31:25;;;;;;;2.17;2.07;;;0.90;25.30;;;;;;5053538;28;20171;-67
2023/03/06 01:33:51;;;;;;;2.37;1.90;;;0.80;17.90;;;;;;5054596;28;20416;-72
2023/03/06 01:36:17;;;;;;;2.88;2.10;;;0.80;20.80;;;;;;5053618;28;20468;-74
2023/03/06 01:38:43;;;;;;;2.40;2.20;;;0.70;11.80;;;;;;5055688;28;20171;-73
2023/03/06 01:41:14;;;;;;;2.70;2.10;;;0.70;14.70;;;;;;5055639;28;20209;-70
2023/03/06 01:43:43;;;;;;;5.10;2.65;;;0.70;13.80;;;;;;5036153;28;20183;-73
2023/03/06 01:46:27;;;;;;;2.67;2.33;;;0.60;10.10;;;;;;5034350;28;20202;-73
2023/03/06 01:49:11;;;;;;;9.70;2.20;;;0.60;2.80;;;;;;5034234;28;20202;-67
2023/03/06 01:52:01;;;;;;;3.47;2.40;;;0.50;1.50;;;;;;5034138;28;20548;-73
2023/03/06 01:54:41;;;;;;;2.50;2.30;;;0.50;4.30;;;;;;5034583;28;20168;-72
2023/03/06 01:57:16;;;;;;;8.23;1.80;;;0.50;7.70;;;;;;5034496;28;20171;-73
2023/03/06 01:59:43;;;;;;;2.17;1.98;;;0.50;4.00;;;;;;5035342;28;20202;-66
2023/03/06 02:02:11;;;;;;;2.25;2.15;;;0.60;4.70;;;;;;5033996;28;20548;-69
2023/03/06 02:04:38;;;;;;;4.80;2.13;;;0.60;3.50;;;;;;5034336;28;20172;-66
2023/03/06 02:07:06;;;;;;;1.77;1.67;;;0.50;2.60;;;;;;5035324;28;20171;-66
2023/03/06 02:09:33;;;;;;;2.00;1.90;;;0.50;1.00;;;;;;5038624;28;20227;-72
2023/03/06 02:12:01;;;;;;;1.80;1.70;;;0.40;1.00;;;;;;5036812;28;20168;-66
2023/03/06 02:14:28;;;;;;;3.22;1.98;;;0.50;1.00;;;;;;5053349;28;20179;-67
2023/03/06 02:16:53;;;;;;;4.10;2.05;;;0.50;1.00;;;;;;5054011;28;20199;-72
2023/03/06 02:19:49;;;;;;;7.10;2.00;;;0.50;1.20;;;;;;5054247;28;20269;-72
2023/03/06 02:22:15;;;;;;;1.93;1.83;;;0.50;1.00;;;;;;5047583;28;20514;-72
2023/03/06 02:24:43;;;;;;;5.03;2.17;;;0.60;1.90;;;;;;5033043;28;20433;-71
2023/03/06 02:27:11;;;;;;;3.83;2.43;;;0.60;1.80;;;;;;5033643;28;20205;-66
2023/03/06 02:29:36;;;;;;;4.28;2.25;;;0.60;2.40;;;;;;5034180;28;20476;-67
2023/03/06 02:32:03;;;;;;;3.37;2.07;;;0.50;3.70;;;;;;5053735;28;20175;-67
2023/03/06 02:34:29;;;;;;;2.40;2.13;;;0.50;3.80;;;;;;5053765;28;20528;-72
2023/03/06 02:37:01;;;;;;;2.70;2.13;;;0.50;4.60;;;;;;5053279;28;20193;-72
2023/03/06 02:39:31;;;;;;;2.97;2.75;;;0.50;5.00;;;;;;5054668;28;20516;-67
2023/03/06 02:41:57;;;;;;;2.92;2.25;;;0.40;6.90;;;;;;5052812;28;20182;-72
2023/03/06 02:44:24;;;;;;;2.30;2.10;;;0.40;9.50;;;;;;5053592;28;20159;-72
2023/03/06 02:46:50;;;;;;;2.20;2.03;;;0.40;14.50;;;;;;5053296;28;20253;-67
2023/03/06 02:49:16;;;;;;;1.80;1.70;;;0.40;21.30;;;;;;5054430;28;20587;-73
2023/03/06 02:51:42;;;;;;;2.47;2.27;;;0.40;24.50;;;;;;5054272;28;20175;-73
2023/03/06 02:54:07;;;;;;;2.87;2.60;;;0.40;28.20;;;;;;5034580;28;20214;-72
2023/03/06 02:56:33;;;;;;;2.73;2.63;;;0.40;35.10;;;;;;5033753;28;20441;-66
2023/03/06 02:58:58;;;;;;;3.03;2.83;;;0.40;43.80;;;;;;5044546;28;20599;-70
2023/03/06 03:01:24;;;;;;;3.17;2.87;;;0.40;48.00;;;;;;5052979;28;20178;-73
2023/03/06 03:03:50;;;;;;;3.00;2.80;;;0.30;56.90;;;;;;5053174;28;20221;-66
2023/03/06 03:06:16;;;;;;;5.00;2.70;;;0.30;60.40;;;;;;5053040;28;20660;-73
2023/03/06 03:08:41;;;;;;;2.97;2.77;;;0.30;65.60;;;;;;5053276;28;20628;-67
2023/03/06 03:11:08;;;;;;;3.27;3.07;;;0.30;70.40;;;;;;5052626;28;20170;-73
2023/03/06 03:13:34;;;;;;;3.58;3.28;;;0.30;86.00;;;;;;5052956;28;20535;-66
2023/03/06 03:16:02;;;;;;;2.60;2.50;;;0.30;88.10;;;;;;5053087;28;20198;-73
2023/03/06 03:18:28;;;;;;;4.85;3.30;;;0.40;88.10;;;;;;5052969;28;20406;-73
2023/03/06 03:20:55;;;;;;;3.58;3.30;;;0.40;88.10;;;;;;5036130;28;20187;-72
2023/03/06 03:23:21;;;;;;;3.10;2.80;;;0.30;88.00;;;;;;5042018;28;20250;-72
2023/03/06 03:25:46;;;;;;;3.15;2.85;;;0.20;87.90;;;;;;5051724;28;20713;-66
2023/03/06 03:28:12;;;;;;;4.97;3.13;;;0.30;95.30;;;;;;5053678;28;20166;-66
2023/03/06 03:30:39;;;;;;;3.53;3.23;;;0.30;96.00;;;;;;5052303;28;20533;-66
2023/03/06 03:33:05;;;;;;;3.05;2.85;;;0.20;95.60;;;;;;5052525;28;20524;-67
2023/03/06 03:35:31;;;;;;;5.50;4.10;;;0.20;99.90;;;;;;5051843;28;20305;-72
2023/03/06 03:37:57;;;;;;;3.92;3.63;;;0.20;99.90;;;;;;5053228;28;20396;-73
2023/03/06 03:40:23;;;;;;;4.43;4.03;;;0.20;99.90;;;;;;5053501;28;20171;-66
2023/03/06 03:42:48;;;;;;;4.10;3.77;;;0.30;99.90;;;;;;5048796;28;20184;-67
2023/03/06 03:45:14;;;;;;;6.90;3.87;;;0.30;99.90;;;;;;5031307;28;20222;-73
2023/03/06 03:47:40;;;;;;;8.43;4.20;;;0.30;99.90;;;;;;5032152;28;20167;-67
2023/03/06 03:50:06;;;;;;;4.33;3.77;;;0.20;99.90;;;;;;5032129;28;20195;-67
2023/03/06 03:52:32;;;;;;;5.05;4.60;;;0.10;99.90;;;;;;5032499;28;20164;-67
2023/03/06 03:54:58;;;;;;;4.70;4.13;;;0.00;99.90;;;;;;5030463;28;20203;-72
2023/03/06 03:57:23;;;;;;;4.80;4.27;;;0.00;99.90;;;;;;5033223;28;20159;-70
2023/03/06 03:59:49;;;;;;;4.43;4.03;;;0.00;99.90;;;;;;5033322;28;20178;-66
2023/03/06 04:02:15;;;;;;;5.23;4.83;;;0.00;99.90;;;;;;5033229;28;20226;-72
2023/03/06 04:04:42;;;;;;;4.90;4.50;;;0.00;99.90;;;;;;5050102;28;20493;-72
2023/03/06 04:07:08;;;;;;;4.50;4.10;;;0.00;99.90;;;;;;5053101;28;20225;-73
2023/03/06 04:09:33;;;;;;;4.95;4.28;;;-0.10;99.90;;;;;;5052820;28;20651;-67
2023/03/06 04:11:59;;;;;;;6.70;4.67;;;0.00;99.90;;;;;;5052802;28;20254;-73
2023/03/06 04:14:25;;;;;;;4.90;4.50;;;-0.10;99.90;;;;;;5050399;28;20208;-66
2023/03/06 04:16:50;;;;;;;9.03;5.20;;;-0.10;99.90;;;;;;5052895;28;20186;-67
2023/03/06 04:19:16;;;;;;;10.47;5.97;;;0.00;99.90;;;;;;5052016;28;20532;-73
2023/03/06 04:21:42;;;;;;;10.23;5.33;;;-0.10;99.90;;;;;;5039980;28;20203;-66
2023/03/06 04:24:08;;;;;;;7.03;5.30;;;-0.10;99.90;;;;;;5045327;28;20539;-73
2023/03/06 04:26:34;;;;;;;8.60;5.17;;;-0.10;99.90;;;;;;5052376;28;20198;-66
2023/03/06 04:29:00;;;;;;;9.65;5.15;;;-0.20;99.90;;;;;;5052732;28;20187;-73
2023/03/06 04:31:26;;;;;;;10.90;6.50;;;-0.20;99.90;;;;;;5052767;28;20571;-67
2023/03/06 04:33:52;;;;;;;7.80;4.80;;;-0.20;99.90;;;;;;5050986;28;20210;-72
2023/03/06 04:36:35;;;;;;;6.57;5.60;;;-0.10;99.90;;;;;;5051760;28;20278;-72
2023/03/06 04:39:01;;;;;;;7.75;5.38;;;-0.20;99.90;;;;;;5051327;28;20189;-72
2023/03/06 04:41:27;;;;;;;6.27;5.27;;;-0.20;99.90;;;;;;5052643;28;20183;-72
2023/03/06 04:43:53;;;;;;;12.70;6.00;;;-0.30;99.90;;;;;;5051648;28;20523;-71
2023/03/06 04:46:19;;;;;;;7.73;5.57;;;-0.30;99.90;;;;;;5051645;28;20417;-66
2023/03/06 04:48:44;;;;;;;8.93;5.93;;;-0.20;99.90;;;;;;5049274;28;20541;-68
2023/03/06 04:51:13;;;;;;;5.97;5.37;;;-0.20;99.90;;;;;;5032231;28;20772;-73
2023/03/06 04:53:39;;;;;;;6.43;5.25;;;-0.20;99.90;;;;;;5040530;28;20239;-66
2023/03/06 04:56:05;;;;;;;10.70;6.90;;;-0.20;99.90;;;;;;5051544;28;20195;-67
2023/03/06 04:58:31;;;;;;;12.07;6.15;;;-0.20;99.90;;;;;;5052541;28;20222;-72
2023/03/06 05:00:57;;;;;;;7.53;5.80;;;-0.30;99.90;;;;;;5052388;28;20202;-66
2023/03/06 05:03:22;;;;;;;10.40;7.10;;;-0.30;99.90;;;;;;5051635;28;20182;-66
2023/03/06 05:05:48;;;;;;;8.63;5.80;;;-0.30;99.90;;;;;;5051586;28;20275;-70
2023/03/06 05:08:15;;;;;;;18.07;6.80;;;-0.30;99.90;;;;;;5051501;28;20174;-70
2023/03/06 05:10:42;;;;;;;9.35;6.97;;;-0.30;99.90;;;;;;5051487;28;20199;-70
2023/03/06 05:13:08;;;;;;;10.25;6.68;;;-0.30;99.90;;;;;;5051493;28;20205;-65
2023/03/06 05:15:33;;;;;;;10.00;7.40;;;-0.40;99.90;;;;;;5050237;28;20278;-70
2023/03/06 05:17:59;;;;;;;9.93;5.90;;;-0.40;99.90;;;;;;5051516;28;20487;-72
2023/03/06 05:20:25;;;;;;;12.03;6.77;;;-0.40;99.90;;;;;;5052342;28;20246;-66
2023/03/06 05:22:50;;;;;;;9.53;6.57;;;-0.30;99.90;;;;;;5051523;28;20163;-72
2023/03/06 05:25:16;;;;;;;10.70;6.43;;;-0.30;99.90;;;;;;5055247;28;20229;-66
2023/03/06 05:27:42;;;;;;;6.53;5.93;;;-0.30;99.90;;;;;;5055964;28;20181;-66
2023/03/06 05:30:11;;;;;;;11.87;6.67;;;-0.20;99.90;;;;;;5053514;28;20211;-70
2023/03/06 05:32:37;;;;;;;13.13;7.47;;;-0.20;99.90;;;;;;5055972;28;20488;-70
2023/03/06 05:35:04;;;;;;;7.80;6.30;;;-0.10;99.90;;;;;;5053712;28;20297;-70
2023/03/06 05:37:30;;;;;;;11.57;6.63;;;-0.10;99.90;;;;;;5054469;28;20163;-65
2023/03/06 05:39:57;;;;;;;7.70;5.05;;;-0.10;99.90;;;;;;5055799;28;20198;-69
2023/03/06 05:42:23;;;;;;;10.87;6.40;;;-0.10;99.90;;;;;;5054655;28;20540;-75
2023/03/06 05:44:48;;;;;;;10.97;6.70;;;-0.10;99.90;;;;;;5044067;28;20266;-74
2023/03/06 05:47:14;;;;;;;12.80;7.07;;;-0.10;99.90;;;;;;5044049;28;20297;-74
2023/03/06 05:49:40;;;;;;;10.13;6.10;;;-0.10;99.90;;;;;;5055129;28;20190;-69
2023/03/06 05:52:07;;;;;;;9.32;6.65;;;-0.10;99.90;;;;;;5053682;28;20229;-74
2023/03/06 05:54:35;;;;;;;8.85;6.75;;;-0.10;99.90;;;;;;5049156;28;20183;-68
2023/03/06 05:57:03;;;;;;;10.52;5.53;;;-0.10;99.90;;;;;;5050758;28;20164;-68
2023/03/06 05:59:31;;;;;;;11.45;6.60;;;-0.10;99.90;;;;;;5054555;28;20183;-69
2023/03/06 06:01:57;;;;;;;11.88;7.30;;;-0.10;99.90;;;;;;5055450;28;20515;-74
2023/03/06 06:04:25;;;;;;;8.75;6.05;;;0.00;99.90;;;;;;5051458;28;20232;-68
2023/03/06 06:06:56;;;;;;;11.82;6.60;;;0.00;99.90;;;;;;5053860;28;20667;-74
2023/03/06 06:09:22;;;;;;;8.52;6.07;;;0.00;99.90;;;;;;5054253;28;20265;-73
2023/03/06 06:11:54;;;;;;;14.30;7.18;;;0.00;99.90;;;;;;5045390;28;20176;-68
2023/03/06 06:14:20;;;;;;;8.95;5.97;;;0.00;99.90;;;;;;5033985;28;20190;-74
2023/03/06 06:16:46;;;;;;;9.20;6.20;;;0.00;99.90;;;;;;5035075;28;20214;-69
2023/03/06 06:19:21;;;;;;;9.53;5.47;;;0.00;99.90;;;;;;5034037;28;20175;-75
2023/03/06 06:21:49;;;;;;;11.05;7.10;;;0.00;99.90;;;;;;5035139;28;20171;-68
2023/03/06 06:24:16;;;;;;;9.52;6.53;;;-0.10;99.90;;;;;;5034217;28;20202;-69
2023/03/06 06:26:42;;;;;;;12.70;7.22;;;-0.10;99.90;;;;;;5053384;28;20590;-69
2023/03/06 06:29:09;;;;;;;12.93;6.47;;;-0.10;99.90;;;;;;5055009;28;20199;-68
2023/03/06 06:31:35;;;;;;;8.82;5.60;;;-0.10;99.90;;;;;;5054849;28;20803;-68
2023/03/06 06:34:02;;;;;;;10.35;6.32;;;-0.20;99.90;;;;;;5054567;28;20190;-67
2023/03/06 06:36:28;;;;;;;9.32;5.70;;;-0.10;99.90;;;;;;5051002;28;20217;-68
2023/03/06 06:38:54;;;;;;;9.48;6.22;;;-0.10;99.90;;;;;;5052194;28;20636;-75
2023/03/06 06:41:20;;;;;;;15.10;6.60;;;-0.20;99.90;;;;;;5033746;28;20210;-75
2023/03/06 06:43:45;;;;;;;8.07;6.23;;;-0.20;99.90;;;;;;5034462;28;20176;-73
2023/03/06 06:46:11;;;;;;;6.63;4.90;;;-0.10;99.90;;;;;;5047159;28;20213;-68
2023/03/06 06:48:37;;;;;;;10.47;6.73;;;-0.10;99.90;;;;;;5054560;28;20171;-66
2023/03/06 06:51:03;;;;;;;5.83;4.70;;;-0.10;99.90;;;;;;5054300;28;20202;-68
2023/03/06 06:53:29;;;;;;;7.13;4.70;;;-0.10;99.90;;;;;;5054383;28;20571;-73
2023/03/06 06:55:57;;;;;;;8.60;4.37;;;0.00;99.90;;;;;;5043851;28;20203;-73
2023/03/06 06:58:23;;;;;;;3.67;3.38;;;0.00;99.90;;;;;;5054262;28;20500;-73
2023/03/06 07:00:49;;;;;;;6.43;4.28;;;0.10;99.90;;;;;;5054177;28;20187;-66
2023/03/06 07:03:15;;;;;;;6.70;4.40;;;0.20;99.90;;;;;;5053441;28;20250;-66
2023/03/06 07:05:41;;;;;;;4.17;3.87;;;0.20;99.90;;;;;;5051371;28;20211;-72
2023/03/06 07:08:06;;;;;;;7.10;5.00;;;0.30;99.90;;;;;;5053370;28;20187;-72
2023/03/06 07:10:32;;;;;;;4.67;4.20;;;0.30;99.90;;;;;;5054028;28;20203;-73
2023/03/06 07:12:58;;;;;;;5.47;4.47;;;0.30;99.90;;;;;;5052932;28;20178;-73
2023/03/06 07:15:25;;;;;;;3.83;3.53;;;0.40;99.90;;;;;;5048196;28;20556;-70
2023/03/06 07:17:52;;;;;;;3.33;3.13;;;0.40;99.90;;;;;;5053109;28;20633;-68
2023/03/06 07:20:19;;;;;;;3.55;3.10;;;0.30;99.90;;;;;;5053867;28;20175;-75
2023/03/06 07:22:45;;;;;;;4.43;3.15;;;0.30;99.90;;;;;;5052924;28;20705;-69
2023/03/06 07:25:11;;;;;;;5.95;3.72;;;0.30;99.90;;;;;;5046630;28;20203;-68
2023/03/06 07:27:36;;;;;;;7.60;3.30;;;0.20;99.90;;;;;;5033807;28;20535;-68
2023/03/06 07:30:03;;;;;;;4.83;4.30;;;0.20;99.90;;;;;;5032558;28;20545;-70
2023/03/06 07:32:28;;;;;;;3.92;3.58;;;0.20;99.90;;;;;;5033819;28;20167;-75
2023/03/06 07:34:54;;;;;;;3.80;3.47;;;0.30;99.90;;;;;;5050116;28;20195;-75
2023/03/06 07:37:20;;;;;;;4.13;3.10;;;0.40;99.90;;;;;;5053599;28;20497;-66
2023/03/06 07:39:46;;;;;;;3.17;2.90;;;0.50;99.90;;;;;;5053525;28;20410;-73
2023/03/06 07:42:12;;;;;;;3.33;2.97;;;0.50;99.90;;;;;;5052734;28;20175;-75
2023/03/06 07:44:38;;;;;;;3.42;2.83;;;0.50;99.90;;;;;;5052288;28;20171;-68
2023/03/06 07:47:04;;;;;;;3.33;3.13;;;0.50;99.90;;;;;;5034552;28;20195;-72
2023/03/06 07:49:31;;;;;;;3.60;3.10;;;0.60;99.90;;;;;;5033261;28;20489;-66
2023/03/06 07:51:57;;;;;;;4.65;2.83;;;0.60;99.90;;;;;;5033619;28;20191;-66
2023/03/06 07:54:24;;;;;;;3.53;3.10;;;0.80;99.90;;;;;;5032566;28;20164;-66
2023/03/06 07:56:50;;;;;;;7.90;2.95;;;0.80;99.90;;;;;;5043452;28;20333;-72
2023/03/06 07:59:16;;;;;;;4.28;2.53;;;0.90;99.90;;;;;;5052270;28;20163;-67
2023/03/06 08:01:41;;;;;;;3.10;2.80;;;1.00;99.90;;;;;;5052130;28;20190;-73
2023/03/06 08:04:07;;;;;;;5.47;2.80;;;1.00;99.90;;;;;;5052815;28;20175;-72
2023/03/06 08:06:33;;;;;;;6.73;2.30;;;1.20;99.90;;;;;;5040986;28;20199;-67
2023/03/06 08:08:59;;;;;;;3.73;2.10;;;1.30;99.90;;;;;;5033136;28;20463;-66
2023/03/06 08:11:27;;;;;;;2.90;2.70;;;1.40;99.90;;;;;;5033059;28;20756;-72
2023/03/06 08:13:54;;;;;;;2.80;2.60;;;1.40;99.90;;;;;;5033129;28;20409;-72
2023/03/06 08:16:25;;;;;;;1.90;1.80;;;1.50;99.90;;;;;;5039721;28;20457;-67
2023/03/06 08:18:51;;;;;;;6.63;2.57;;;1.50;99.90;;;;;;5052198;28;20421;-66
2023/03/06 08:21:20;;;;;;;2.33;2.23;;;1.60;99.90;;;;;;5052874;28;20887;-66
2023/03/06 08:23:46;;;;;;;3.08;2.85;;;1.60;99.90;;;;;;5052236;28;20873;-72
2023/03/06 08:26:17;;;;;;;2.00;1.77;;;1.70;99.90;;;;;;5050842;28;20211;-71
2023/03/06 08:28:43;;;;;;;2.00;1.90;;;1.90;99.90;;;;;;5050130;28;20959;-68
2023/03/06 08:31:12;;;;;;;2.87;1.90;;;2.00;99.90;;;;;;5052770;28;20465;-72
2023/03/06 08:33:39;;;;;;;2.00;1.90;;;2.20;99.90;;;;;;5052673;28;20171;-72
2023/03/06 08:36:05;;;;;;;2.80;1.90;;;2.30;98.50;;;;;;5049801;28;20476;-71
2023/03/06 08:38:30;;;;;;;7.40;1.97;;;2.40;89.60;;;;;;5052831;28;20405;-72
2023/03/06 08:40:56;;;;;;;5.17;1.90;;;2.60;89.70;;;;;;5052739;28;20413;-66
2023/03/06 08:43:22;;;;;;;3.73;1.67;;;2.70;79.20;;;;;;5052813;28;20501;-72
2023/03/06 08:45:52;;;;;;;7.27;2.40;;;2.80;63.70;;;;;;5049914;28;20416;-72
2023/03/06 08:48:18;;;;;;;3.00;2.00;;;2.80;48.70;;;;;;5033498;28;20637;-66
2023/03/06 08:50:43;;;;;;;3.03;2.23;;;2.90;44.60;;;;;;5032724;28;20454;-72
2023/03/06 08:53:09;;;;;;;2.37;2.17;;;3.10;43.40;;;;;;5032767;28;20180;-71
2023/03/06 08:55:36;;;;;;;3.87;2.50;;;3.30;36.10;;;;;;5031131;28;20545;-66
2023/03/06 08:58:03;;;;;;;2.40;2.20;;;3.60;31.70;;;;;;5046520;28;20641;-67
2023/03/06 09:00:29;;;;;;;4.00;2.47;;;3.70;26.40;;;;;;5056228;28;20410;-72
2023/03/06 09:02:55;;;;;;;5.83;2.20;;;3.90;17.90;;;;;;5056583;28;20529;-72
2023/03/06 09:05:21;;;;;;;3.30;2.80;;;4.00;1.00;;;;;;5055429;28;20887;-73
2023/03/06 09:07:46;;;;;;;4.60;3.00;;;4.10;1.00;;;;;;5043856;28;20192;-72
2023/03/06 09:10:15;;;;;;;5.23;2.90;;;4.20;1.00;;;;;;5035294;28;20815;-73
2023/03/06 09:12:41;;;;;;;3.40;2.47;;;4.30;1.00;;;;;;5035712;28;20170;-69
2023/03/06 09:15:07;;;;;;;4.70;2.20;;;4.40;1.00;;;;;;5045137;28;20452;-67
2023/03/06 09:17:33;;;;;;;3.20;1.73;;;4.50;1.00;;;;;;5053661;28;20452;-67
2023/03/06 09:19:59;;;;;;;3.43;2.80;;;4.60;1.00;;;;;;5055999;28;20415;-73
2023/03/06 09:22:24;;;;;;;3.20;2.07;;;4.60;1.00;;;;;;5056141;28;20173;-73
2023/03/06 09:24:51;;;;;;;3.83;2.43;;;4.60;1.00;;;;;;5053550;28;20177;-67
2023/03/06 09:27:17;;;;;;;6.43;3.37;;;4.60;1.00;;;;;;5042652;28;20266;-67
2023/03/06 09:29:42;;;;;;;7.63;2.20;;;4.60;1.00;;;;;;5055435;28;20546;-69
2023/03/06 09:32:08;;;;;;;2.67;2.40;;;4.70;1.00;;;;;;5055876;28;20409;-67
2023/03/06 09:34:35;;;;;;;2.10;1.97;;;4.80;1.00;;;;;;5049367;28;20180;-72
2023/03/06 09:37:03;;;;;;;2.30;2.10;;;4.70;1.00;;;;;;5054076;28;20321;-67
2023/03/06 09:39:29;;;;;;;8.60;2.70;;;4.60;1.00;;;;;;5055822;28;20526;-72
2023/03/06 09:41:57;;;;;;;2.83;1.80;;;4.40;1.00;;;;;;5054606;28;20906;-67
2023/03/06 09:44:26;;;;;;;1.83;1.73;;;4.50;1.00;;;;;;5054006;28;20201;-70
2023/03/06 09:46:55;;;;;;;3.87;2.03;;;4.60;1.00;;;;;;5054437;28;20461;-73
2023/03/06 09:49:37;;;;;;;3.17;2.33;;;4.90;1.00;;;;;;5053956;28;20537;-67
2023/03/06 09:52:21;;;;;;;2.97;1.77;;;5.30;1.00;;;;;;5055468;28;20430;-67
2023/03/06 09:54:54;;;;;;;6.23;1.80;;;5.60;1.00;;;;;;5045926;28;20451;-67
2023/03/06 09:57:30;;;;;;;2.60;1.90;;;5.80;1.00;;;;;;5035585;28;20759;-72
2023/03/06 10:00:00;;;;;;;3.50;1.90;;;6.00;1.00;;;;;;5035487;28;20401;-73
2023/03/06 10:02:36;;;;;;;2.40;1.40;;;6.20;1.00;;;;;;5035415;28;20414;-67
2023/03/06 10:05:05;;;;;;;7.03;1.90;;;6.40;1.00;;;;;;5033828;28;20449;-68
2023/03/06 10:07:45;;;;;;;2.57;1.60;;;6.40;1.00;;;;;;5034903;28;20391;-67
2023/03/06 10:10:22;;;;;;;2.00;1.80;;;6.30;1.00;;;;;;5035114;28;20461;-68
2023/03/06 10:12:58;;;;;;;1.80;1.70;;;6.70;1.00;;;;;;5035289;28;20409;-69
2023/03/06 10:15:27;;;;;;;2.13;1.60;;;6.90;1.00;;;;;;5045112;28;20459;-68
2023/03/06 10:17:54;;;;;;;2.40;1.80;;;7.00;1.00;;;;;;5055129;28;20398;-72
2023/03/06 10:20:25;;;;;;;3.23;2.17;;;7.20;1.00;;;;;;5055057;28;20430;-73
2023/03/06 10:23:12;;;;;;;4.30;1.80;;;7.30;1.00;;;;;;5054091;28;20435;-67
2023/03/06 10:25:38;;;;;;;2.90;1.90;;;7.20;1.00;;;;;;5051008;28;20852;-71
2023/03/06 10:28:28;;;;;;;1.90;1.70;;;7.10;1.00;;;;;;5053874;28;20471;-73
2023/03/06 10:31:06;;;;;;;2.80;1.87;;;6.90;1.00;;;;;;5054986;28;20218;-73
2023/03/06 10:33:37;;;;;;;2.70;2.17;;;6.70;1.00;;;;;;5054857;28;20436;-73
2023/03/06 10:36:03;;;;;;;2.40;1.40;;;6.90;1.00;;;;;;5053277;28;21046;-73
2023/03/06 10:38:29;;;;;;;1.83;1.73;;;7.40;1.00;;;;;;5054577;28;20476;-75
2023/03/06 10:41:10;;;;;;;3.67;2.00;;;8.00;1.00;;;;;;5054703;28;20420;-69
2023/03/06 10:43:38;;;;;;;2.33;2.00;;;8.70;1.00;;;;;;5054494;28;20171;-74
2023/03/06 10:46:06;;;;;;;3.63;2.10;;;9.20;1.00;;;;;;5052244;28;20453;-75
2023/03/06 10:48:35;;;;;;;5.13;2.30;;;9.20;1.00;;;;;;5054330;28;20763;-70
2023/03/06 10:51:16;;;;;;;9.00;2.70;;;9.00;1.00;;;;;;5043670;28;20557;-68
2023/03/06 10:54:09;;;;;;;5.50;2.90;;;8.30;1.00;;;;;;5049089;28;20958;-75
2023/03/06 10:56:43;;;;;;;4.47;2.67;;;8.30;1.00;;;;;;5033426;28;20556;-71
2023/03/06 10:59:17;;;;;;;2.63;2.43;;;8.30;1.00;;;;;;5046410;28;20403;-74
2023/03/06 11:01:46;;;;;;;3.03;2.70;;;7.90;1.00;;;;;;5054310;28;20803;-74
2023/03/06 11:04:23;;;;;;;5.80;3.40;;;7.80;1.00;;;;;;5052602;28;20571;-69
2023/03/06 11:07:18;;;;;;;5.53;2.67;;;7.90;1.00;;;;;;5041095;28;20811;-66
2023/03/06 11:09:55;;;;;;;3.60;2.80;;;7.20;1.00;;;;;;5032769;28;20985;-66
2023/03/06 11:12:36;;;;;;;4.70;3.47;;;7.40;1.00;;;;;;5034123;28;20461;-74
2023/03/06 11:15:16;;;;;;;4.10;3.20;;;7.60;1.00;;;;;;5042925;28;20917;-69
2023/03/06 11:17:49;;;;;;;16.47;3.70;;;7.60;1.00;;;;;;5054539;28;20418;-70
2023/03/06 11:20:21;;;;;;;4.63;3.67;;;7.60;1.00;;;;;;5034081;28;20393;-71
2023/03/06 11:22:53;;;;;;;9.23;4.20;;;7.40;1.00;;;;;;5035248;28;20465;-74
2023/03/06 11:25:24;;;;;;;8.03;3.00;;;7.30;1.00;;;;;;5032458;28;20429;-70
2023/03/06 11:28:03;;;;;;;6.73;3.53;;;7.30;1.00;;;;;;5033844;28;20403;-75
2023/03/06 11:30:40;;;;;;;3.37;2.87;;;7.30;1.00;;;;;;5033750;28;20450;-70
2023/03/06 11:33:32;;;;;;;5.40;3.13;;;7.10;1.00;;;;;;5050840;28;20440;-74
2023/03/06 11:36:44;;;;;;;3.20;2.50;;;6.70;1.00;;;;;;5052657;28;20458;-72
2023/03/06 11:39:16;;;;;;;3.60;3.30;;;6.40;1.00;;;;;;5052889;28;20433;-67
2023/03/06 11:41:48;;;;;;;8.83;3.80;;;6.20;1.00;;;;;;5037624;28;20453;-67
2023/03/06 11:44:41;;;;;;;3.37;3.07;;;6.20;1.00;;;;;;5053120;28;20459;-69
2023/03/06 11:47:24;;;;;;;4.37;1.87;;;6.30;1.00;;;;;;5051904;28;20429;-68
2023/03/06 11:50:15;;;;;;;1.90;1.70;;;6.50;1.00;;;;;;5053287;28;20475;-73
2023/03/06 11:52:52;;;;;;;2.40;2.03;;;6.80;1.00;;;;;;5052533;28;20433;-69
2023/03/06 11:55:55;;;;;;;2.60;2.40;;;6.90;1.00;;;;;;5052249;28;20433;-71
2023/03/06 11:58:40;;;;;;;2.10;1.97;;;7.30;1.00;;;;;;5053276;28;20401;-75
2023/03/06 12:01:32;;;;;;;2.83;2.40;;;7.20;1.00;;;;;;5052089;28;20416;-73
2023/03/06 12:04:00;;;;;;;2.50;2.33;;;6.90;1.00;;;;;;5051625;28;20939;-70
2023/03/06 12:07:02;;;;;;;4.03;2.10;;;6.80;1.00;;;;;;5052381;28;20425;-70
2023/03/06 12:09:47;;;;;;;2.13;1.80;;;7.00;1.00;;;;;;5053083;28;20448;-75
2023/03/06 12:12:37;;;;;;;2.10;1.50;;;7.10;1.00;;;;;;5050535;28;20532;-74
2023/03/06 12:15:41;;;;;;;2.37;1.87;;;7.10;1.00;;;;;;5050717;28;20433;-70
2023/03/06 12:18:20;;;;;;;1.60;1.50;;;7.00;1.00;;;;;;5051730;28;20412;-73
2023/03/06 12:21:02;;;;;;;1.63;1.53;;;6.90;1.00;;;;;;5031387;28;20428;-75
2023/03/06 12:23:51;;;;;;;2.03;1.93;;;7.00;1.00;;;;;;5051641;28;21055;-70
2023/03/06 12:26:30;;;;;;;2.50;1.50;;;7.30;1.00;;;;;;5052020;28;20400;-74
2023/03/06 12:28:55;;;;;;;2.63;2.43;;;7.60;1.00;;;;;;5051653;28;20802;-75
2023/03/06 12:31:33;;;;;;;4.83;1.80;;;7.80;1.00;;;;;;5051784;28;20446;-75
2023/03/06 12:34:19;;;;;;;6.67;2.03;;;8.10;1.00;;;;;;5054937;28;20244;-75
2023/03/06 12:37:21;;;;;;;2.23;2.10;;;8.10;1.00;;;;;;5056505;28;20425;-70
2023/03/06 12:40:26;;;;;;;1.60;1.50;;;7.80;1.00;;;;;;5054731;28;20411;-71
2023/03/06 12:43:10;;;;;;;2.20;1.53;;;7.40;1.00;;;;;;5047933;28;20492;-72
2023/03/06 12:45:36;;;;;;;1.40;1.30;;;7.70;1.00;;;;;;5055753;28;20425;-71
2023/03/06 12:48:09;;;;;;;1.87;1.60;;;8.60;1.00;;;;;;5055729;28;20431;-69
2023/03/06 12:50:35;;;;;;;4.40;2.17;;;8.50;1.00;;;;;;5056682;28;20537;-75
2023/03/06 12:53:10;;;;;;;2.27;1.50;;;8.30;1.00;;;;;;5040736;28;20427;-75
2023/03/06 12:55:42;;;;;;;1.73;1.63;;;8.00;1.00;;;;;;5050258;28;20450;-72
2023/03/06 12:58:27;;;;;;;2.30;1.67;;;8.40;1.00;;;;;;5044308;28;20956;-70
2023/03/06 13:00:58;;;;;;;2.80;1.73;;;8.90;1.00;;;;;;5049332;28;20432;-73
2023/03/06 13:04:03;;;;;;;4.40;1.90;;;8.80;1.00;;;;;;5055515;28;20432;-75
2023/03/06 13:06:56;;;;;;;9.40;1.70;;;9.80;1.00;;;;;;5055635;28;20440;-74
2023/03/06 13:09:36;;;;;;;5.77;1.67;;;11.10;1.00;;;;;;5055127;28;20481;-73
2023/03/06 13:12:13;;;;;;;;;;;12.30;1.00;;;;;;5054978;28;21141;-70